createdAt,value
2023-04-15T00:00:29.142Z,98580.50
2023-04-15T00:03:55.036Z,98577.80
2023-04-15T00:10:46.689Z,98581.30
2023-04-15T00:13:49.496Z,98580.23
2023-04-15T00:16:56.318Z,98578.69
2023-04-15T00:20:00.036Z,98579.73
2023-04-15T00:23:04.326Z,98576.67
2023-04-15T00:26:07.664Z,98574.59
2023-04-15T00:29:10.480Z,98575.31
2023-04-15T00:32:20.443Z,98575.04
2023-04-15T00:35:24.112Z,98571.97
2023-04-15T00:38:26.892Z,98570.39
2023-04-15T00:41:31.890Z,98571.63
2023-04-15T00:44:50.042Z,98575.33
2023-04-15T00:47:53.023Z,98575.23
2023-04-15T00:50:55.659Z,98575.19
2023-04-15T00:53:58.252Z,98575.52
2023-04-15T00:57:01.896Z,98573.31
2023-04-15T01:00:09.544Z,98576.36
2023-04-15T01:03:12.374Z,98573.75
2023-04-15T01:06:15.345Z,98575.69
2023-04-15T01:09:18.316Z,98578.14
2023-04-15T01:12:21.364Z,98574.50
2023-04-15T01:15:27.998Z,98578.65
2023-04-15T01:18:31.720Z,98578.91
2023-04-15T01:21:38.244Z,98579.95
2023-04-15T01:24:41.385Z,98580.55
2023-04-15T01:27:44.342Z,98582.17
2023-04-15T01:31:00.356Z,98579.83
2023-04-15T01:34:02.991Z,98582.34
2023-04-15T01:37:13.709Z,98584.98
2023-04-15T01:40:16.759Z,98584.77
2023-04-15T01:43:19.806Z,98585.05
2023-04-15T01:46:22.963Z,98586.41
2023-04-15T01:49:26.586Z,98584.02
2023-04-15T01:52:29.263Z,98583.98
2023-04-15T01:55:31.851Z,98588.89
2023-04-15T01:58:34.522Z,98584.36
2023-04-15T02:01:37.438Z,98584.97
2023-04-15T02:04:40.412Z,98588.27
2023-04-15T02:07:43.614Z,98589.40
2023-04-15T02:10:46.782Z,98592.91
2023-04-15T02:13:49.567Z,98591.34
2023-04-15T02:17:07.630Z,98592.00
2023-04-15T02:20:10.823Z,98591.79
2023-04-15T02:23:21.256Z,98596.06
2023-04-15T02:26:25.598Z,98601.90
2023-04-15T02:29:28.472Z,98600.41
2023-04-15T02:32:31.589Z,98602.84
2023-04-15T02:35:34.143Z,98602.33
2023-04-15T02:38:38.282Z,98597.71
2023-04-15T02:41:40.892Z,98593.86
2023-04-15T02:44:43.631Z,98591.39
2023-04-15T02:47:47.461Z,98592.36
2023-04-15T02:51:14.628Z,98593.09
2023-04-15T02:54:18.404Z,98593.11
2023-04-15T02:57:20.988Z,98593.04
2023-04-15T03:00:25.524Z,98595.67
2023-04-15T03:03:28.820Z,98598.30
2023-04-15T03:06:31.630Z,98594.67
2023-04-15T03:09:35.102Z,98593.05
2023-04-15T03:12:37.735Z,98593.07
2023-04-15T03:15:40.353Z,98587.92
2023-04-15T03:18:43.014Z,98594.58
2023-04-15T03:21:45.730Z,98590.00
2023-04-15T03:24:48.448Z,98588.08
2023-04-15T03:27:51.174Z,98587.31
2023-04-15T03:30:53.813Z,98589.16
2023-04-15T03:33:56.481Z,98589.91
2023-04-15T03:37:02.131Z,98587.23
2023-04-15T03:40:05.195Z,98589.84
2023-04-15T03:43:07.881Z,98594.29
2023-04-15T03:46:10.764Z,98596.55
2023-04-15T03:49:14.114Z,98595.73
2023-04-15T03:52:16.686Z,98593.20
2023-04-15T03:55:20.328Z,98596.20
2023-04-15T03:58:23.071Z,98593.59
2023-04-15T04:01:25.736Z,98592.94
2023-04-15T04:04:28.345Z,98594.61
2023-04-15T04:07:31.119Z,98596.06
2023-04-15T04:10:33.763Z,98595.67
2023-04-15T04:13:36.708Z,98597.53
2023-04-15T04:16:39.379Z,98596.48
2023-04-15T04:19:50.597Z,98588.85
2023-04-15T04:22:53.143Z,98589.34
2023-04-15T04:25:55.738Z,98587.73
2023-04-15T04:28:58.323Z,98590.39
2023-04-15T04:32:00.991Z,98591.19
2023-04-15T04:35:04.895Z,98595.94
2023-04-15T04:38:07.488Z,98597.42
2023-04-15T04:41:10.089Z,98603.23
2023-04-15T04:44:12.838Z,98605.25
2023-04-15T04:47:15.570Z,98611.18
2023-04-15T04:50:18.148Z,98614.19
2023-04-15T04:53:21.087Z,98617.65
2023-04-15T04:56:23.758Z,98618.16
2023-04-15T04:59:26.544Z,98622.11
2023-04-15T05:02:29.263Z,98625.59
2023-04-15T05:05:32.048Z,98627.40
2023-04-15T05:08:34.866Z,98632.70
2023-04-15T05:11:37.500Z,98637.46
2023-04-15T05:14:40.026Z,98644.55
2023-04-15T05:17:42.632Z,98638.91
2023-04-15T05:20:46.291Z,98635.79
2023-04-15T05:23:49.206Z,98635.55
2023-04-15T05:26:53.818Z,98634.13
2023-04-15T05:29:56.775Z,98635.70
2023-04-15T05:32:59.416Z,98635.58
2023-04-15T05:36:02.081Z,98627.95
2023-04-15T05:39:04.672Z,98634.09
2023-04-15T05:42:07.607Z,98638.23
2023-04-15T05:45:10.636Z,98638.98
2023-04-15T05:48:13.194Z,98643.49
2023-04-15T05:51:16.216Z,98643.16
2023-04-15T05:54:20.261Z,98652.46
2023-04-15T05:57:23.204Z,98650.84
2023-04-15T06:00:26.177Z,98655.88
2023-04-15T06:03:29.674Z,98656.72
2023-04-15T06:06:32.819Z,98658.88
2023-04-15T06:09:36.335Z,98661.23
2023-04-15T06:12:38.917Z,98659.79
2023-04-15T06:15:41.455Z,98660.55
2023-04-15T06:18:44.116Z,98664.41
2023-04-15T06:21:46.746Z,98663.80
2023-04-15T06:24:53.120Z,98665.20
2023-04-15T06:27:55.775Z,98673.27
2023-04-15T06:30:58.425Z,98674.52
2023-04-15T06:34:01.029Z,98675.05
2023-04-15T06:37:05.119Z,98673.08
2023-04-15T06:40:10.287Z,98675.55
2023-04-15T06:43:12.990Z,98676.10
2023-04-15T06:46:15.855Z,98678.41
2023-04-15T06:53:11.875Z,98682.23
2023-04-15T06:56:14.434Z,98679.67
2023-04-15T06:59:16.986Z,98687.53
2023-04-15T07:02:19.814Z,98697.86
2023-04-15T07:05:22.558Z,98698.25
2023-04-15T07:08:25.689Z,98702.09
2023-04-15T07:11:28.326Z,98703.45
2023-04-15T07:14:31.917Z,98704.78
2023-04-15T07:17:34.501Z,98707.98
2023-04-15T07:20:37.131Z,98709.20
2023-04-15T07:23:39.792Z,98714.06
2023-04-15T07:26:42.533Z,98710.11
2023-04-15T07:29:45.133Z,98713.91
2023-04-15T07:32:48.066Z,98712.13
2023-04-15T07:35:56.625Z,98716.85
2023-04-15T07:38:59.208Z,98717.71
2023-04-15T07:42:02.529Z,98721.73
2023-04-15T07:45:28.166Z,98719.67
2023-04-15T07:48:30.872Z,98725.37
2023-04-15T07:51:33.572Z,98721.52
2023-04-15T07:54:37.294Z,98721.44
2023-04-15T07:57:40.092Z,98721.60
2023-04-15T08:00:43.377Z,98718.18
2023-04-15T08:03:46.576Z,98724.33
2023-04-15T08:06:50.437Z,98730.67
2023-04-15T08:09:53.063Z,98736.27
2023-04-15T08:12:56.524Z,98737.13
2023-04-15T08:16:24.921Z,98746.13
2023-04-15T08:19:27.838Z,98747.16
2023-04-15T08:22:30.486Z,98748.26
2023-04-15T08:25:33.545Z,98751.15
2023-04-15T08:28:39.131Z,98750.56
2023-04-15T08:31:42.084Z,98750.52
2023-04-15T08:34:44.718Z,98753.63
2023-04-15T08:37:47.365Z,98757.38
2023-04-15T08:40:50.219Z,98759.43
2023-04-15T08:43:57.213Z,98761.52
2023-04-15T08:47:03.349Z,98764.06
2023-04-15T08:50:09.926Z,98763.86
2023-04-15T08:53:13.037Z,98768.23
2023-04-15T08:56:16.993Z,98769.16
2023-04-15T08:59:22.157Z,98774.92
2023-04-15T09:02:27.523Z,98776.67
2023-04-15T09:05:33.668Z,98780.81
2023-04-15T09:08:36.304Z,98781.75
2023-04-15T09:11:39.142Z,98785.75
2023-04-15T09:14:43.832Z,98788.84
2023-04-15T09:17:47.942Z,98789.80
2023-04-15T09:20:53.584Z,98792.95
2023-04-15T09:24:01.233Z,98792.96
2023-04-15T09:27:05.096Z,98793.34
2023-04-15T09:30:09.330Z,98793.48
2023-04-15T09:33:14.673Z,98799.91
2023-04-15T09:36:26.421Z,98797.95
2023-04-15T09:39:47.274Z,98799.91
2023-04-15T09:42:56.811Z,98802.33
2023-04-15T09:45:59.556Z,98806.73
2023-04-15T09:49:10.304Z,98810.60
2023-04-15T09:52:14.169Z,98814.17
2023-04-15T09:55:18.526Z,98819.16
2023-04-15T09:58:32.393Z,98821.31
2023-04-15T10:01:36.222Z,98817.20
2023-04-15T10:04:41.779Z,98816.34
2023-04-15T10:07:45.980Z,98817.64
2023-04-15T10:10:49.007Z,98825.94
2023-04-15T10:13:52.491Z,98825.92
2023-04-15T10:16:57.191Z,98822.50
2023-04-15T10:20:05.447Z,98821.80
2023-04-15T10:23:10.936Z,98827.44
2023-04-15T10:26:17.294Z,98832.59
2023-04-15T10:29:28.439Z,98836.20
2023-04-15T10:32:32.169Z,98841.08
2023-04-15T10:35:35.118Z,98843.66
2023-04-15T10:38:44.325Z,98841.57
2023-04-15T10:42:06.520Z,98844.77
2023-04-15T10:45:18.133Z,98843.44
2023-04-15T10:48:20.754Z,98847.06
2023-04-15T10:51:29.082Z,98849.17
2023-04-15T10:54:33.803Z,98849.29
2023-04-15T10:57:39.947Z,98852.13
2023-04-15T11:00:52.703Z,98857.96
2023-04-15T11:03:55.720Z,98856.35
2023-04-15T11:07:07.921Z,98853.93
2023-04-15T11:10:13.516Z,98860.96
2023-04-15T11:13:23.766Z,98865.32
2023-04-15T11:16:26.428Z,98866.27
2023-04-15T11:19:36.797Z,98868.71
2023-04-15T11:22:47.749Z,98870.63
2023-04-15T11:25:50.307Z,98872.86
2023-04-15T11:28:53.812Z,98872.14
2023-04-15T11:32:09.385Z,98870.09
2023-04-15T11:35:12.076Z,98874.80
2023-04-15T11:38:15.659Z,98874.90
2023-04-15T11:41:22.745Z,98876.22
2023-04-15T11:44:25.512Z,98880.36
2023-04-15T11:47:28.089Z,98876.98
2023-04-15T11:50:30.733Z,98886.11
2023-04-15T11:53:37.341Z,98888.31
2023-04-15T11:56:40.007Z,98893.68
2023-04-15T11:59:45.689Z,98893.80
2023-04-15T12:02:48.895Z,98900.52
2023-04-15T12:06:16.774Z,98901.51
2023-04-15T12:09:21.754Z,98899.65
2023-04-15T12:12:28.691Z,98903.33
2023-04-15T12:15:31.567Z,98903.67
2023-04-15T12:18:34.171Z,98905.49
2023-04-15T12:21:39.103Z,98910.53
2023-04-15T12:24:48.243Z,98916.23
2023-04-15T12:27:52.548Z,98923.89
2023-04-15T12:30:55.205Z,98924.30
2023-04-15T12:33:59.507Z,98922.85
2023-04-15T12:37:04.760Z,98929.66
2023-04-15T12:40:08.880Z,98936.06
2023-04-15T12:43:11.769Z,98941.66
2023-04-15T12:46:15.681Z,98936.70
2023-04-15T12:49:21.023Z,98943.35
2023-04-15T12:52:24.488Z,98943.34
2023-04-15T12:55:27.176Z,98945.90
2023-04-15T12:58:29.770Z,98954.95
2023-04-15T13:01:32.412Z,98959.31
2023-04-15T13:04:35.126Z,98961.34
2023-04-15T13:07:37.772Z,98960.69
2023-04-15T13:10:40.735Z,98967.12
2023-04-15T13:13:43.496Z,98966.02
2023-04-15T13:16:46.526Z,98969.39
2023-04-15T13:19:49.145Z,98970.99
2023-04-15T13:22:53.085Z,98974.48
2023-04-15T13:25:56.155Z,98981.39
2023-04-15T13:28:58.926Z,98980.59
2023-04-15T13:32:01.721Z,98980.67
2023-04-15T13:35:05.404Z,98982.65
2023-04-15T13:38:07.989Z,98984.67
2023-04-15T13:41:10.582Z,98984.85
2023-04-15T13:44:13.684Z,98984.35
2023-04-15T13:47:16.395Z,98983.09
2023-04-15T13:50:19.017Z,98986.88
2023-04-15T13:53:21.721Z,98986.70
2023-04-15T13:56:40.385Z,98987.36
2023-04-15T13:59:44.105Z,98990.51
2023-04-15T14:02:46.771Z,98994.21
2023-04-15T14:05:55.880Z,98998.35
2023-04-15T14:08:58.491Z,99006.96
2023-04-15T14:12:01.577Z,99011.10
2023-04-15T14:15:05.222Z,99007.59
2023-04-15T14:18:08.172Z,99015.06
2023-04-15T14:21:10.897Z,99015.07
2023-04-15T14:24:13.502Z,99020.28
2023-04-15T14:27:16.770Z,99022.56
2023-04-15T14:30:19.464Z,99028.18
2023-04-15T14:33:23.122Z,99033.23
2023-04-15T14:36:27.241Z,99040.11
2023-04-15T14:39:29.810Z,99044.81
2023-04-15T14:42:32.368Z,99048.85
2023-04-15T14:45:35.050Z,99053.48
2023-04-15T14:48:37.764Z,99052.41
2023-04-15T14:51:41.820Z,99051.08
2023-04-15T14:54:44.629Z,99051.43
2023-04-15T14:57:47.442Z,99050.75
2023-04-15T15:00:50.396Z,99060.89
2023-04-15T15:03:53.032Z,99063.73
2023-04-15T15:06:55.861Z,99062.64
2023-04-15T15:09:58.481Z,99065.04
2023-04-15T15:13:02.956Z,99068.35
2023-04-15T15:16:05.943Z,99074.18
2023-04-15T15:19:08.717Z,99068.55
2023-04-15T15:22:11.484Z,99072.35
2023-04-15T15:25:14.098Z,99071.81
2023-04-15T15:28:16.805Z,99072.39
2023-04-15T15:31:19.372Z,99077.05
2023-04-15T15:34:23.139Z,99080.17
2023-04-15T15:37:26.017Z,99085.23
2023-04-15T15:40:29.676Z,99087.73
2023-04-15T15:43:32.412Z,99092.38
2023-04-15T15:46:37.160Z,99096.63
2023-04-15T15:49:40.008Z,99097.46
2023-04-15T15:52:42.617Z,99102.08
2023-04-15T15:55:48.381Z,99104.13
2023-04-15T15:58:51.043Z,99107.23
2023-04-15T16:01:53.836Z,99109.87
2023-04-15T16:04:56.561Z,99114.59
2023-04-15T16:07:59.158Z,99119.96
2023-04-15T16:11:01.790Z,99122.89
2023-04-15T16:14:04.753Z,99123.71
2023-04-15T16:17:07.291Z,99128.86
2023-04-15T16:20:10.079Z,99137.02
2023-04-15T16:23:15.176Z,99137.43
2023-04-15T16:26:17.868Z,99143.90
2023-04-15T16:29:26.482Z,99144.48
2023-04-15T16:32:28.982Z,99146.49
2023-04-15T16:35:33.383Z,99150.80
2023-04-15T16:38:37.152Z,99149.95
2023-04-15T16:41:39.813Z,99159.08
2023-04-15T16:44:42.392Z,99157.76
2023-04-15T16:47:45.016Z,99159.45
2023-04-15T16:50:49.152Z,99163.55
2023-04-15T16:53:53.856Z,99165.73
2023-04-15T16:56:58.568Z,99170.08
2023-04-15T17:00:01.185Z,99172.48
2023-04-15T17:03:06.129Z,99177.87
2023-04-15T17:06:09.107Z,99180.42
2023-04-15T17:09:11.960Z,99182.79
2023-04-15T17:12:14.595Z,99191.75
2023-04-15T17:15:17.243Z,99196.13
2023-04-15T17:18:19.985Z,99202.84
2023-04-15T17:21:29.377Z,99203.83
2023-04-15T17:24:32.000Z,99208.98
2023-04-15T17:27:34.692Z,99216.39
2023-04-15T17:30:37.333Z,99217.42
2023-04-15T17:34:04.003Z,99223.59
2023-04-15T17:37:03.837Z,99227.42
2023-04-15T17:40:08.963Z,99231.09
2023-04-15T17:43:11.794Z,99230.65
2023-04-15T17:46:14.513Z,99235.39
2023-04-15T17:49:17.139Z,99240.97
2023-04-15T17:52:19.865Z,99242.71
2023-04-15T17:55:22.691Z,99246.87
2023-04-15T17:58:26.660Z,99247.50
2023-04-15T18:01:29.416Z,99253.85
2023-04-15T18:04:32.369Z,99255.91
2023-04-15T18:07:35.812Z,99259.55
2023-04-15T18:10:39.167Z,99264.87
2023-04-15T18:13:51.018Z,99267.83
2023-04-15T18:16:54.001Z,99269.65
2023-04-15T18:19:56.664Z,99278.48
2023-04-15T18:22:59.606Z,99284.04
2023-04-15T18:26:02.522Z,99289.35
2023-04-15T18:29:05.538Z,99292.08
2023-04-15T18:32:08.315Z,99296.80
2023-04-15T18:35:11.256Z,99302.90
2023-04-15T18:38:13.846Z,99305.77
2023-04-15T18:41:16.819Z,99310.36
2023-04-15T18:44:19.708Z,99315.69
2023-04-15T18:47:23.455Z,99315.48
2023-04-15T18:50:29.096Z,99321.34
2023-04-15T18:53:32.306Z,99321.26
2023-04-15T18:56:35.361Z,99322.29
2023-04-15T18:59:38.716Z,99321.88
2023-04-15T19:02:42.459Z,99329.16
2023-04-15T19:05:45.195Z,99332.35
2023-04-15T19:08:47.782Z,99336.67
2023-04-15T19:11:50.938Z,99340.02
2023-04-15T19:14:53.568Z,99354.12
2023-04-15T19:17:56.194Z,99361.77
2023-04-15T19:20:58.935Z,99368.45
2023-04-15T19:24:01.989Z,99371.23
2023-04-15T19:27:05.020Z,99373.45
2023-04-15T19:30:08.456Z,99378.34
2023-04-15T19:33:11.345Z,99379.10
2023-04-15T19:36:14.488Z,99380.26
2023-04-15T19:39:17.798Z,99382.09
2023-04-15T19:42:20.785Z,99386.67
2023-04-15T19:45:23.433Z,99388.11
2023-04-15T19:48:26.245Z,99392.58
2023-04-15T19:55:05.468Z,99385.93
2023-04-15T19:58:08.054Z,99386.25
2023-04-15T20:01:10.771Z,99393.17
2023-04-15T20:04:13.740Z,99389.16
2023-04-15T20:07:16.798Z,99391.83
2023-04-15T20:10:23.072Z,99394.77
2023-04-15T20:13:25.673Z,99400.30
2023-04-15T20:16:38.442Z,99401.88
2023-04-15T20:19:40.978Z,99403.06
2023-04-15T20:22:43.644Z,99407.00
2023-04-15T20:25:46.354Z,99408.20
2023-04-15T20:28:48.951Z,99413.20
2023-04-15T20:32:16.972Z,99415.52
2023-04-15T20:35:19.961Z,99422.73
2023-04-15T20:38:29.317Z,99421.36
2023-04-15T20:45:22.964Z,99428.84
2023-04-15T20:48:25.840Z,99422.69
2023-04-15T20:51:28.618Z,99424.65
2023-04-15T20:54:31.588Z,99424.20
2023-04-15T20:57:34.151Z,99429.02
2023-04-15T21:00:36.790Z,99431.52
2023-04-15T21:03:39.442Z,99432.90
2023-04-15T21:06:42.622Z,99434.30
2023-04-15T21:09:45.443Z,99434.13
2023-04-15T21:12:48.188Z,99436.70
2023-04-15T21:16:03.174Z,99442.66
2023-04-15T21:19:06.235Z,99440.42
2023-04-15T21:22:09.099Z,99440.46
2023-04-15T21:25:11.759Z,99439.15
2023-04-15T21:28:14.730Z,99437.65
2023-04-15T21:31:17.948Z,99442.64
2023-04-15T21:34:20.736Z,99451.25
2023-04-15T21:37:23.346Z,99454.57
2023-04-15T21:40:25.994Z,99457.10
2023-04-15T21:43:28.581Z,99462.90
2023-04-15T21:46:35.014Z,99465.14
2023-04-15T21:49:38.571Z,99466.18
2023-04-15T21:52:41.334Z,99470.20
2023-04-15T21:55:45.174Z,99472.55
2023-04-15T21:58:51.363Z,99471.86
2023-04-15T22:01:54.112Z,99474.65
2023-04-15T22:04:56.880Z,99476.11
2023-04-15T22:08:03.589Z,99479.27
2023-04-15T22:11:06.156Z,99484.25
2023-04-15T22:14:09.211Z,99486.98
2023-04-15T22:17:11.803Z,99494.11
2023-04-15T22:20:14.476Z,99493.27
2023-04-15T22:23:20.362Z,99495.77
2023-04-15T22:26:22.897Z,99503.46
2023-04-15T22:29:26.174Z,99507.70
2023-04-15T22:32:28.811Z,99518.02
2023-04-15T22:35:31.721Z,99518.55
2023-04-15T22:38:34.386Z,99520.02
2023-04-15T22:41:37.058Z,99518.27
2023-04-15T22:44:39.694Z,99526.01
2023-04-15T22:48:08.157Z,99531.45
2023-04-15T22:51:10.947Z,99539.02
2023-04-15T22:54:13.538Z,99545.86
2023-04-15T23:01:01.242Z,99548.39
2023-04-15T23:04:05.936Z,99557.38
2023-04-15T23:07:09.617Z,99553.41
2023-04-15T23:10:12.263Z,99554.02
2023-04-15T23:13:14.823Z,99555.52
2023-04-15T23:16:17.502Z,99560.41
2023-04-15T23:19:20.417Z,99558.61
2023-04-15T23:22:22.961Z,99556.27
2023-04-15T23:25:25.542Z,99557.34
2023-04-15T23:28:59.254Z,99556.59
2023-04-15T23:32:01.956Z,99551.43
2023-04-15T23:35:05.120Z,99549.38
2023-04-15T23:38:08.016Z,99547.61
2023-04-15T23:41:12.115Z,99551.23
2023-04-15T23:44:14.816Z,99557.10
2023-04-15T23:47:17.522Z,99559.41
2023-04-15T23:50:20.125Z,99564.86
2023-04-15T23:53:22.753Z,99570.18
2023-04-15T23:56:25.512Z,99569.98
2023-04-15T23:59:28.573Z,99574.08
